sensor_id;sensor_type;location;lat;lon;timestamp;P1;durP1;ratioP1;P2;durP2;ratioP2
48685;SDS011;34485;51.536;3.816;2022-12-19T00:01:44;49.90;;;19.23;;
48685;SDS011;34485;51.536;3.816;2022-12-19T00:04:10;49.90;;;18.20;;
48685;SDS011;34485;51.536;3.816;2022-12-19T00:06:39;50.92;;;18.60;;
48685;SDS011;34485;51.536;3.816;2022-12-19T00:09:05;58.13;;;21.25;;
48685;SDS011;34485;51.536;3.816;2022-12-19T00:11:31;37.08;;;16.48;;
48685;SDS011;34485;51.536;3.816;2022-12-19T00:13:58;63.85;;;22.67;;
48685;SDS011;34485;51.536;3.816;2022-12-19T00:16:25;49.10;;;17.65;;
48685;SDS011;34485;51.536;3.816;2022-12-19T00:18:53;65.80;;;22.42;;
48685;SDS011;34485;51.536;3.816;2022-12-19T00:21:21;51.88;;;19.88;;
48685;SDS011;34485;51.536;3.816;2022-12-19T00:23:49;41.30;;;18.27;;
48685;SDS011;34485;51.536;3.816;2022-12-19T00:26:16;41.35;;;17.17;;
48685;SDS011;34485;51.536;3.816;2022-12-19T00:28:47;39.30;;;18.25;;
48685;SDS011;34485;51.536;3.816;2022-12-19T00:31:14;42.42;;;18.02;;
48685;SDS011;34485;51.536;3.816;2022-12-19T00:33:41;53.08;;;23.20;;
48685;SDS011;34485;51.536;3.816;2022-12-19T00:36:11;42.80;;;18.38;;
48685;SDS011;34485;51.536;3.816;2022-12-19T00:38:41;46.90;;;17.42;;
48685;SDS011;34485;51.536;3.816;2022-12-19T00:41:08;48.17;;;20.23;;
48685;SDS011;34485;51.536;3.816;2022-12-19T00:43:35;43.75;;;17.95;;
48685;SDS011;34485;51.536;3.816;2022-12-19T00:46:02;39.40;;;17.17;;
48685;SDS011;34485;51.536;3.816;2022-12-19T00:48:29;44.78;;;19.05;;
48685;SDS011;34485;51.536;3.816;2022-12-19T00:51:02;49.42;;;21.58;;
48685;SDS011;34485;51.536;3.816;2022-12-19T00:53:29;35.50;;;15.70;;
48685;SDS011;34485;51.536;3.816;2022-12-19T00:55:54;40.75;;;17.55;;
48685;SDS011;34485;51.536;3.816;2022-12-19T00:58:20;36.67;;;16.33;;
48685;SDS011;34485;51.536;3.816;2022-12-19T01:00:46;29.60;;;14.00;;
48685;SDS011;34485;51.536;3.816;2022-12-19T01:03:12;43.17;;;16.90;;
48685;SDS011;34485;51.536;3.816;2022-12-19T01:05:38;25.23;;;13.60;;
48685;SDS011;34485;51.536;3.816;2022-12-19T01:08:03;28.30;;;14.97;;
48685;SDS011;34485;51.536;3.816;2022-12-19T01:10:29;32.17;;;15.40;;
48685;SDS011;34485;51.536;3.816;2022-12-19T01:12:55;27.47;;;12.27;;
48685;SDS011;34485;51.536;3.816;2022-12-19T01:15:20;44.85;;;20.13;;
48685;SDS011;34485;51.536;3.816;2022-12-19T01:17:46;44.60;;;18.77;;
48685;SDS011;34485;51.536;3.816;2022-12-19T01:20:17;37.40;;;16.25;;
48685;SDS011;34485;51.536;3.816;2022-12-19T01:22:45;34.30;;;15.73;;
48685;SDS011;34485;51.536;3.816;2022-12-19T01:25:11;36.90;;;17.07;;
48685;SDS011;34485;51.536;3.816;2022-12-19T01:27:37;29.63;;;14.98;;
48685;SDS011;34485;51.536;3.816;2022-12-19T01:30:04;33.03;;;14.98;;
48685;SDS011;34485;51.536;3.816;2022-12-19T01:32:33;38.97;;;15.52;;
48685;SDS011;34485;51.536;3.816;2022-12-19T01:35:00;31.70;;;15.55;;
48685;SDS011;34485;51.536;3.816;2022-12-19T01:37:26;37.53;;;17.93;;
48685;SDS011;34485;51.536;3.816;2022-12-19T01:39:51;30.02;;;14.65;;
48685;SDS011;34485;51.536;3.816;2022-12-19T01:42:18;27.02;;;12.65;;
48685;SDS011;34485;51.536;3.816;2022-12-19T01:45:45;25.73;;;13.52;;
48685;SDS011;34485;51.536;3.816;2022-12-19T01:47:47;13.07;;;8.50;;
48685;SDS011;34485;51.536;3.816;2022-12-19T01:50:17;26.05;;;13.20;;
48685;SDS011;34485;51.536;3.816;2022-12-19T01:53:10;28.63;;;12.90;;
48685;SDS011;34485;51.536;3.816;2022-12-19T01:55:40;26.00;;;14.15;;
48685;SDS011;34485;51.536;3.816;2022-12-19T01:58:08;21.70;;;11.88;;
48685;SDS011;34485;51.536;3.816;2022-12-19T02:00:35;19.73;;;10.60;;
48685;SDS011;34485;51.536;3.816;2022-12-19T02:03:06;29.83;;;14.88;;
48685;SDS011;34485;51.536;3.816;2022-12-19T02:05:33;21.17;;;12.40;;
48685;SDS011;34485;51.536;3.816;2022-12-19T02:08:00;25.42;;;14.65;;
48685;SDS011;34485;51.536;3.816;2022-12-19T02:10:26;33.35;;;14.82;;
48685;SDS011;34485;51.536;3.816;2022-12-19T02:15:46;26.23;;;11.45;;
48685;SDS011;34485;51.536;3.816;2022-12-19T02:21:21;25.10;;;13.57;;
48685;SDS011;34485;51.536;3.816;2022-12-19T02:32:47;26.52;;;14.02;;
48685;SDS011;34485;51.536;3.816;2022-12-19T02:35:41;26.20;;;13.02;;
48685;SDS011;34485;51.536;3.816;2022-12-19T02:38:12;22.27;;;11.90;;
48685;SDS011;34485;51.536;3.816;2022-12-19T02:40:50;35.80;;;15.37;;
48685;SDS011;34485;51.536;3.816;2022-12-19T02:43:25;24.65;;;13.00;;
48685;SDS011;34485;51.536;3.816;2022-12-19T02:45:55;41.65;;;16.52;;
48685;SDS011;34485;51.536;3.816;2022-12-19T02:48:21;34.15;;;15.30;;
48685;SDS011;34485;51.536;3.816;2022-12-19T02:50:48;28.52;;;13.75;;
48685;SDS011;34485;51.536;3.816;2022-12-19T02:53:14;26.23;;;13.80;;
48685;SDS011;34485;51.536;3.816;2022-12-19T02:58:20;37.30;;;17.92;;
48685;SDS011;34485;51.536;3.816;2022-12-19T03:01:23;31.77;;;15.38;;
48685;SDS011;34485;51.536;3.816;2022-12-19T03:07:02;29.17;;;15.20;;
48685;SDS011;34485;51.536;3.816;2022-12-19T03:12:58;25.95;;;13.80;;
48685;SDS011;34485;51.536;3.816;2022-12-19T03:15:35;27.13;;;13.60;;
48685;SDS011;34485;51.536;3.816;2022-12-19T03:18:03;28.63;;;15.60;;
48685;SDS011;34485;51.536;3.816;2022-12-19T03:23:00;26.88;;;15.80;;
48685;SDS011;34485;51.536;3.816;2022-12-19T03:25:26;26.43;;;14.47;;
48685;SDS011;34485;51.536;3.816;2022-12-19T03:27:54;33.90;;;14.90;;
48685;SDS011;34485;51.536;3.816;2022-12-19T03:30:24;19.63;;;11.68;;
48685;SDS011;34485;51.536;3.816;2022-12-19T03:32:50;30.00;;;14.43;;
48685;SDS011;34485;51.536;3.816;2022-12-19T03:35:21;17.77;;;11.50;;
48685;SDS011;34485;51.536;3.816;2022-12-19T03:37:49;33.08;;;16.80;;
48685;SDS011;34485;51.536;3.816;2022-12-19T03:40:19;19.73;;;10.27;;
48685;SDS011;34485;51.536;3.816;2022-12-19T03:42:47;20.75;;;12.15;;
48685;SDS011;34485;51.536;3.816;2022-12-19T03:48:08;33.78;;;13.48;;
48685;SDS011;34485;51.536;3.816;2022-12-19T03:53:51;21.80;;;11.77;;
48685;SDS011;34485;51.536;3.816;2022-12-19T03:58:56;30.70;;;15.20;;
48685;SDS011;34485;51.536;3.816;2022-12-19T04:01:30;24.02;;;13.30;;
48685;SDS011;34485;51.536;3.816;2022-12-19T04:03:58;27.77;;;14.60;;
48685;SDS011;34485;51.536;3.816;2022-12-19T04:06:26;28.20;;;15.70;;
48685;SDS011;34485;51.536;3.816;2022-12-19T04:08:54;30.10;;;14.85;;
48685;SDS011;34485;51.536;3.816;2022-12-19T04:11:21;28.08;;;14.57;;
48685;SDS011;34485;51.536;3.816;2022-12-19T04:13:48;22.45;;;12.18;;
48685;SDS011;34485;51.536;3.816;2022-12-19T04:16:26;24.73;;;14.57;;
48685;SDS011;34485;51.536;3.816;2022-12-19T04:19:02;24.77;;;12.80;;
48685;SDS011;34485;51.536;3.816;2022-12-19T04:21:38;24.73;;;13.73;;
48685;SDS011;34485;51.536;3.816;2022-12-19T04:24:14;23.35;;;12.65;;
48685;SDS011;34485;51.536;3.816;2022-12-19T04:26:45;23.38;;;12.05;;
48685;SDS011;34485;51.536;3.816;2022-12-19T04:29:15;21.88;;;13.57;;
48685;SDS011;34485;51.536;3.816;2022-12-19T04:31:42;22.07;;;13.07;;
48685;SDS011;34485;51.536;3.816;2022-12-19T04:34:08;23.45;;;14.00;;
48685;SDS011;34485;51.536;3.816;2022-12-19T04:36:34;27.00;;;13.80;;
48685;SDS011;34485;51.536;3.816;2022-12-19T04:39:00;27.80;;;14.03;;
48685;SDS011;34485;51.536;3.816;2022-12-19T04:41:25;30.90;;;14.68;;
48685;SDS011;34485;51.536;3.816;2022-12-19T04:43:51;24.35;;;12.18;;
48685;SDS011;34485;51.536;3.816;2022-12-19T04:46:16;18.80;;;12.13;;
48685;SDS011;34485;51.536;3.816;2022-12-19T04:48:42;23.70;;;12.90;;
48685;SDS011;34485;51.536;3.816;2022-12-19T04:51:07;25.52;;;12.60;;
48685;SDS011;34485;51.536;3.816;2022-12-19T04:53:33;24.63;;;14.17;;
48685;SDS011;34485;51.536;3.816;2022-12-19T04:56:02;23.77;;;13.63;;
48685;SDS011;34485;51.536;3.816;2022-12-19T04:58:30;21.65;;;11.30;;
48685;SDS011;34485;51.536;3.816;2022-12-19T05:00:59;25.20;;;14.03;;
48685;SDS011;34485;51.536;3.816;2022-12-19T05:03:29;21.17;;;13.02;;
48685;SDS011;34485;51.536;3.816;2022-12-19T05:06:08;25.38;;;13.48;;
48685;SDS011;34485;51.536;3.816;2022-12-19T05:08:36;21.63;;;12.77;;
48685;SDS011;34485;51.536;3.816;2022-12-19T05:11:04;22.67;;;13.07;;
48685;SDS011;34485;51.536;3.816;2022-12-19T05:13:30;25.48;;;12.73;;
48685;SDS011;34485;51.536;3.816;2022-12-19T05:15:59;17.15;;;11.65;;
48685;SDS011;34485;51.536;3.816;2022-12-19T05:18:27;17.77;;;11.20;;
48685;SDS011;34485;51.536;3.816;2022-12-19T05:20:54;21.23;;;12.57;;
48685;SDS011;34485;51.536;3.816;2022-12-19T05:23:20;24.17;;;13.93;;
48685;SDS011;34485;51.536;3.816;2022-12-19T05:25:46;18.58;;;10.30;;
48685;SDS011;34485;51.536;3.816;2022-12-19T05:28:12;20.80;;;12.50;;
48685;SDS011;34485;51.536;3.816;2022-12-19T05:30:37;23.80;;;13.93;;
48685;SDS011;34485;51.536;3.816;2022-12-19T05:33:03;25.42;;;13.73;;
48685;SDS011;34485;51.536;3.816;2022-12-19T05:35:29;21.07;;;12.67;;
48685;SDS011;34485;51.536;3.816;2022-12-19T05:37:54;24.10;;;12.53;;
48685;SDS011;34485;51.536;3.816;2022-12-19T05:40:20;21.52;;;11.13;;
48685;SDS011;34485;51.536;3.816;2022-12-19T05:42:45;23.97;;;12.87;;
48685;SDS011;34485;51.536;3.816;2022-12-19T05:45:11;19.93;;;11.17;;
48685;SDS011;34485;51.536;3.816;2022-12-19T05:47:37;20.53;;;11.17;;
48685;SDS011;34485;51.536;3.816;2022-12-19T05:50:02;18.10;;;11.00;;
48685;SDS011;34485;51.536;3.816;2022-12-19T05:52:29;14.38;;;10.75;;
48685;SDS011;34485;51.536;3.816;2022-12-19T05:54:55;17.75;;;10.90;;
48685;SDS011;34485;51.536;3.816;2022-12-19T05:57:21;18.87;;;11.70;;
48685;SDS011;34485;51.536;3.816;2022-12-19T05:59:46;14.98;;;10.23;;
48685;SDS011;34485;51.536;3.816;2022-12-19T06:02:12;20.80;;;12.27;;
48685;SDS011;34485;51.536;3.816;2022-12-19T06:04:38;18.42;;;11.05;;
48685;SDS011;34485;51.536;3.816;2022-12-19T06:07:03;18.33;;;10.30;;
48685;SDS011;34485;51.536;3.816;2022-12-19T06:09:29;22.57;;;11.73;;
48685;SDS011;34485;51.536;3.816;2022-12-19T06:11:55;17.40;;;10.95;;
48685;SDS011;34485;51.536;3.816;2022-12-19T06:14:20;18.63;;;10.77;;
48685;SDS011;34485;51.536;3.816;2022-12-19T06:16:46;17.20;;;11.65;;
48685;SDS011;34485;51.536;3.816;2022-12-19T06:19:11;18.47;;;10.90;;
48685;SDS011;34485;51.536;3.816;2022-12-19T06:21:37;22.90;;;11.70;;
48685;SDS011;34485;51.536;3.816;2022-12-19T06:24:03;18.80;;;9.80;;
48685;SDS011;34485;51.536;3.816;2022-12-19T06:26:29;15.65;;;10.20;;
48685;SDS011;34485;51.536;3.816;2022-12-19T06:28:55;14.18;;;8.98;;
48685;SDS011;34485;51.536;3.816;2022-12-19T06:31:21;24.60;;;11.03;;
48685;SDS011;34485;51.536;3.816;2022-12-19T06:33:48;19.48;;;11.88;;
48685;SDS011;34485;51.536;3.816;2022-12-19T06:36:21;20.27;;;10.57;;
48685;SDS011;34485;51.536;3.816;2022-12-19T06:38:48;16.55;;;10.07;;
48685;SDS011;34485;51.536;3.816;2022-12-19T06:41:15;17.23;;;8.87;;
48685;SDS011;34485;51.536;3.816;2022-12-19T06:44:01;14.65;;;8.65;;
48685;SDS011;34485;51.536;3.816;2022-12-19T06:46:29;15.50;;;9.05;;
48685;SDS011;34485;51.536;3.816;2022-12-19T06:48:55;15.05;;;9.63;;
48685;SDS011;34485;51.536;3.816;2022-12-19T06:51:21;14.93;;;8.20;;
48685;SDS011;34485;51.536;3.816;2022-12-19T06:53:46;15.60;;;9.27;;
48685;SDS011;34485;51.536;3.816;2022-12-19T06:56:13;12.52;;;9.23;;
48685;SDS011;34485;51.536;3.816;2022-12-19T06:58:40;14.30;;;7.93;;
48685;SDS011;34485;51.536;3.816;2022-12-19T07:01:06;11.75;;;8.57;;
48685;SDS011;34485;51.536;3.816;2022-12-19T07:03:36;22.43;;;10.33;;
48685;SDS011;34485;51.536;3.816;2022-12-19T07:06:04;17.35;;;10.02;;
48685;SDS011;34485;51.536;3.816;2022-12-19T07:08:30;15.00;;;8.90;;
48685;SDS011;34485;51.536;3.816;2022-12-19T07:10:56;12.40;;;8.45;;
48685;SDS011;34485;51.536;3.816;2022-12-19T07:13:22;15.00;;;8.50;;
48685;SDS011;34485;51.536;3.816;2022-12-19T07:15:48;16.73;;;8.05;;
48685;SDS011;34485;51.536;3.816;2022-12-19T07:18:16;12.60;;;8.55;;
48685;SDS011;34485;51.536;3.816;2022-12-19T07:20:42;13.53;;;7.70;;
48685;SDS011;34485;51.536;3.816;2022-12-19T07:23:09;12.68;;;8.52;;
48685;SDS011;34485;51.536;3.816;2022-12-19T07:25:38;12.15;;;9.05;;
48685;SDS011;34485;51.536;3.816;2022-12-19T07:28:04;11.27;;;7.90;;
48685;SDS011;34485;51.536;3.816;2022-12-19T07:30:31;12.75;;;8.60;;
48685;SDS011;34485;51.536;3.816;2022-12-19T07:32:56;11.40;;;7.93;;
48685;SDS011;34485;51.536;3.816;2022-12-19T07:35:22;11.68;;;7.65;;
48685;SDS011;34485;51.536;3.816;2022-12-19T07:37:48;12.50;;;7.45;;
48685;SDS011;34485;51.536;3.816;2022-12-19T07:40:15;15.70;;;9.00;;
48685;SDS011;34485;51.536;3.816;2022-12-19T07:42:41;36.97;;;18.92;;
48685;SDS011;34485;51.536;3.816;2022-12-19T07:45:07;25.25;;;13.85;;
48685;SDS011;34485;51.536;3.816;2022-12-19T07:47:33;18.10;;;9.85;;
48685;SDS011;34485;51.536;3.816;2022-12-19T07:49:59;19.27;;;9.97;;
48685;SDS011;34485;51.536;3.816;2022-12-19T07:52:25;31.83;;;16.00;;
48685;SDS011;34485;51.536;3.816;2022-12-19T07:54:51;19.80;;;11.40;;
48685;SDS011;34485;51.536;3.816;2022-12-19T07:57:17;23.37;;;12.77;;
48685;SDS011;34485;51.536;3.816;2022-12-19T07:59:43;35.97;;;17.87;;
48685;SDS011;34485;51.536;3.816;2022-12-19T08:02:08;16.20;;;10.20;;
48685;SDS011;34485;51.536;3.816;2022-12-19T08:04:34;10.27;;;7.07;;
48685;SDS011;34485;51.536;3.816;2022-12-19T08:07:00;25.70;;;14.35;;
48685;SDS011;34485;51.536;3.816;2022-12-19T08:09:26;13.90;;;8.60;;
48685;SDS011;34485;51.536;3.816;2022-12-19T08:11:52;10.75;;;7.63;;
48685;SDS011;34485;51.536;3.816;2022-12-19T08:14:18;13.30;;;9.10;;
48685;SDS011;34485;51.536;3.816;2022-12-19T08:16:44;9.98;;;6.90;;
48685;SDS011;34485;51.536;3.816;2022-12-19T08:19:09;10.87;;;6.77;;
48685;SDS011;34485;51.536;3.816;2022-12-19T08:21:35;9.97;;;7.43;;
48685;SDS011;34485;51.536;3.816;2022-12-19T08:24:01;10.45;;;7.03;;
48685;SDS011;34485;51.536;3.816;2022-12-19T08:26:26;13.93;;;8.17;;
48685;SDS011;34485;51.536;3.816;2022-12-19T08:28:53;13.73;;;8.68;;
48685;SDS011;34485;51.536;3.816;2022-12-19T08:31:23;12.88;;;7.70;;
48685;SDS011;34485;51.536;3.816;2022-12-19T08:33:51;13.43;;;8.40;;
48685;SDS011;34485;51.536;3.816;2022-12-19T08:36:21;11.50;;;7.63;;
48685;SDS011;34485;51.536;3.816;2022-12-19T08:38:48;9.20;;;6.45;;
48685;SDS011;34485;51.536;3.816;2022-12-19T08:41:14;6.78;;;5.95;;
48685;SDS011;34485;51.536;3.816;2022-12-19T08:43:41;10.93;;;6.43;;
48685;SDS011;34485;51.536;3.816;2022-12-19T08:46:07;7.60;;;5.57;;
48685;SDS011;34485;51.536;3.816;2022-12-19T08:48:33;8.57;;;6.43;;
48685;SDS011;34485;51.536;3.816;2022-12-19T08:51:03;9.18;;;5.93;;
48685;SDS011;34485;51.536;3.816;2022-12-19T08:53:31;8.70;;;6.90;;
48685;SDS011;34485;51.536;3.816;2022-12-19T08:56:02;5.85;;;4.80;;
48685;SDS011;34485;51.536;3.816;2022-12-19T08:58:32;8.50;;;6.33;;
48685;SDS011;34485;51.536;3.816;2022-12-19T09:00:59;8.27;;;5.28;;
48685;SDS011;34485;51.536;3.816;2022-12-19T09:03:29;6.90;;;5.28;;
48685;SDS011;34485;51.536;3.816;2022-12-19T09:05:59;12.95;;;6.22;;
48685;SDS011;34485;51.536;3.816;2022-12-19T09:08:27;11.33;;;5.70;;
48685;SDS011;34485;51.536;3.816;2022-12-19T09:10:57;6.97;;;4.25;;
48685;SDS011;34485;51.536;3.816;2022-12-19T09:13:24;6.15;;;5.35;;
48685;SDS011;34485;51.536;3.816;2022-12-19T09:15:57;8.73;;;5.03;;
48685;SDS011;34485;51.536;3.816;2022-12-19T09:18:24;6.40;;;4.70;;
48685;SDS011;34485;51.536;3.816;2022-12-19T09:20:52;7.07;;;4.93;;
48685;SDS011;34485;51.536;3.816;2022-12-19T09:23:19;7.03;;;4.38;;
48685;SDS011;34485;51.536;3.816;2022-12-19T09:25:45;10.30;;;5.45;;
48685;SDS011;34485;51.536;3.816;2022-12-19T09:28:11;7.03;;;4.57;;
48685;SDS011;34485;51.536;3.816;2022-12-19T09:30:36;7.57;;;4.87;;
48685;SDS011;34485;51.536;3.816;2022-12-19T09:33:02;6.68;;;4.45;;
48685;SDS011;34485;51.536;3.816;2022-12-19T09:35:28;6.75;;;4.57;;
48685;SDS011;34485;51.536;3.816;2022-12-19T09:37:54;9.90;;;4.53;;
48685;SDS011;34485;51.536;3.816;2022-12-19T09:40:19;9.83;;;4.87;;
48685;SDS011;34485;51.536;3.816;2022-12-19T09:42:56;8.40;;;4.97;;
48685;SDS011;34485;51.536;3.816;2022-12-19T09:45:33;9.10;;;4.63;;
48685;SDS011;34485;51.536;3.816;2022-12-19T09:48:20;6.38;;;4.97;;
48685;SDS011;34485;51.536;3.816;2022-12-19T09:50:57;4.97;;;4.40;;
48685;SDS011;34485;51.536;3.816;2022-12-19T09:53:31;4.78;;;4.20;;
48685;SDS011;34485;51.536;3.816;2022-12-19T09:56:18;7.63;;;4.72;;
48685;SDS011;34485;51.536;3.816;2022-12-19T09:58:46;7.03;;;5.07;;
48685;SDS011;34485;51.536;3.816;2022-12-19T10:01:21;10.60;;;4.00;;
48685;SDS011;34485;51.536;3.816;2022-12-19T10:03:58;4.93;;;4.32;;
48685;SDS011;34485;51.536;3.816;2022-12-19T10:06:37;6.78;;;5.57;;
48685;SDS011;34485;51.536;3.816;2022-12-19T10:09:04;14.05;;;4.55;;
48685;SDS011;34485;51.536;3.816;2022-12-19T10:11:40;5.23;;;3.67;;
48685;SDS011;34485;51.536;3.816;2022-12-19T10:19:42;7.27;;;5.23;;
48685;SDS011;34485;51.536;3.816;2022-12-19T10:22:26;5.68;;;4.55;;
48685;SDS011;34485;51.536;3.816;2022-12-19T10:27:51;7.03;;;5.32;;
48685;SDS011;34485;51.536;3.816;2022-12-19T10:30:23;7.13;;;5.03;;
48685;SDS011;34485;51.536;3.816;2022-12-19T10:35:43;6.82;;;5.47;;
48685;SDS011;34485;51.536;3.816;2022-12-19T10:40:46;9.03;;;5.33;;
48685;SDS011;34485;51.536;3.816;2022-12-19T10:43:33;10.73;;;5.93;;
48685;SDS011;34485;51.536;3.816;2022-12-19T10:46:35;10.70;;;6.30;;
48685;SDS011;34485;51.536;3.816;2022-12-19T10:54:46;9.57;;;6.07;;
48685;SDS011;34485;51.536;3.816;2022-12-19T11:02:42;10.45;;;6.80;;
48685;SDS011;34485;51.536;3.816;2022-12-19T11:05:24;9.83;;;7.33;;
48685;SDS011;34485;51.536;3.816;2022-12-19T11:08:00;9.38;;;6.05;;
48685;SDS011;34485;51.536;3.816;2022-12-19T11:13:14;8.30;;;5.05;;
48685;SDS011;34485;51.536;3.816;2022-12-19T11:15:45;13.40;;;7.22;;
48685;SDS011;34485;51.536;3.816;2022-12-19T11:18:12;6.87;;;5.80;;
48685;SDS011;34485;51.536;3.816;2022-12-19T11:20:38;9.98;;;6.22;;
48685;SDS011;34485;51.536;3.816;2022-12-19T11:23:04;10.43;;;6.57;;
48685;SDS011;34485;51.536;3.816;2022-12-19T11:25:31;6.77;;;5.73;;
48685;SDS011;34485;51.536;3.816;2022-12-19T11:28:05;8.52;;;5.95;;
48685;SDS011;34485;51.536;3.816;2022-12-19T11:31:28;10.73;;;6.82;;
48685;SDS011;34485;51.536;3.816;2022-12-19T11:33:44;12.40;;;6.97;;
48685;SDS011;34485;51.536;3.816;2022-12-19T11:36:10;13.60;;;5.80;;
48685;SDS011;34485;51.536;3.816;2022-12-19T11:38:53;8.70;;;5.57;;
48685;SDS011;34485;51.536;3.816;2022-12-19T11:46:56;7.03;;;5.40;;
48685;SDS011;34485;51.536;3.816;2022-12-19T11:49:32;5.60;;;5.10;;
48685;SDS011;34485;51.536;3.816;2022-12-19T11:55:15;7.25;;;4.80;;
48685;SDS011;34485;51.536;3.816;2022-12-19T11:57:44;5.40;;;4.55;;
48685;SDS011;34485;51.536;3.816;2022-12-19T12:00:11;6.03;;;5.07;;
48685;SDS011;34485;51.536;3.816;2022-12-19T12:10:54;8.00;;;4.63;;
48685;SDS011;34485;51.536;3.816;2022-12-19T12:13:26;5.53;;;4.40;;
48685;SDS011;34485;51.536;3.816;2022-12-19T12:16:10;9.27;;;4.05;;
48685;SDS011;34485;51.536;3.816;2022-12-19T12:26:11;5.20;;;4.00;;
48685;SDS011;34485;51.536;3.816;2022-12-19T12:40:02;5.10;;;3.97;;
48685;SDS011;34485;51.536;3.816;2022-12-19T12:44:58;5.53;;;4.88;;
48685;SDS011;34485;51.536;3.816;2022-12-19T12:47:25;9.65;;;6.72;;
48685;SDS011;34485;51.536;3.816;2022-12-19T12:50:02;11.10;;;6.22;;
48685;SDS011;34485;51.536;3.816;2022-12-19T12:52:33;10.17;;;6.83;;
48685;SDS011;34485;51.536;3.816;2022-12-19T12:55:01;7.13;;;5.60;;
48685;SDS011;34485;51.536;3.816;2022-12-19T13:02:38;3.90;;;3.13;;
48685;SDS011;34485;51.536;3.816;2022-12-19T13:05:14;8.20;;;5.30;;
48685;SDS011;34485;51.536;3.816;2022-12-19T13:07:52;5.97;;;4.57;;
48685;SDS011;34485;51.536;3.816;2022-12-19T13:10:22;3.22;;;3.03;;
48685;SDS011;34485;51.536;3.816;2022-12-19T13:12:52;4.88;;;4.47;;
48685;SDS011;34485;51.536;3.816;2022-12-19T13:18:10;7.82;;;4.25;;
48685;SDS011;34485;51.536;3.816;2022-12-19T13:20:41;6.55;;;4.68;;
48685;SDS011;34485;51.536;3.816;2022-12-19T13:23:19;4.25;;;3.85;;
48685;SDS011;34485;51.536;3.816;2022-12-19T13:25:46;8.73;;;4.38;;
48685;SDS011;34485;51.536;3.816;2022-12-19T13:28:15;5.93;;;4.00;;
48685;SDS011;34485;51.536;3.816;2022-12-19T13:39:14;3.95;;;3.60;;
48685;SDS011;34485;51.536;3.816;2022-12-19T13:41:50;4.17;;;3.80;;
48685;SDS011;34485;51.536;3.816;2022-12-19T13:45:00;3.95;;;3.53;;
48685;SDS011;34485;51.536;3.816;2022-12-19T13:47:32;5.63;;;3.83;;
48685;SDS011;34485;51.536;3.816;2022-12-19T13:50:03;6.32;;;4.07;;
48685;SDS011;34485;51.536;3.816;2022-12-19T13:52:38;4.65;;;3.88;;
48685;SDS011;34485;51.536;3.816;2022-12-19T13:55:09;4.37;;;3.73;;
48685;SDS011;34485;51.536;3.816;2022-12-19T13:57:37;6.15;;;3.97;;
48685;SDS011;34485;51.536;3.816;2022-12-19T14:00:06;7.97;;;5.50;;
48685;SDS011;34485;51.536;3.816;2022-12-19T14:02:43;4.70;;;3.65;;
48685;SDS011;34485;51.536;3.816;2022-12-19T14:05:22;4.25;;;3.80;;
48685;SDS011;34485;51.536;3.816;2022-12-19T14:07:55;5.70;;;4.60;;
48685;SDS011;34485;51.536;3.816;2022-12-19T14:10:24;6.17;;;3.73;;
48685;SDS011;34485;51.536;3.816;2022-12-19T14:12:55;5.38;;;3.65;;
48685;SDS011;34485;51.536;3.816;2022-12-19T14:15:45;7.30;;;3.92;;
48685;SDS011;34485;51.536;3.816;2022-12-19T14:18:22;7.20;;;3.95;;
48685;SDS011;34485;51.536;3.816;2022-12-19T14:21:06;5.43;;;4.15;;
48685;SDS011;34485;51.536;3.816;2022-12-19T14:23:39;5.03;;;3.53;;
48685;SDS011;34485;51.536;3.816;2022-12-19T14:26:12;6.22;;;3.47;;
48685;SDS011;34485;51.536;3.816;2022-12-19T14:28:47;5.47;;;3.13;;
48685;SDS011;34485;51.536;3.816;2022-12-19T14:31:20;5.60;;;3.88;;
48685;SDS011;34485;51.536;3.816;2022-12-19T14:33:48;5.43;;;3.87;;
48685;SDS011;34485;51.536;3.816;2022-12-19T14:36:20;3.70;;;3.38;;
48685;SDS011;34485;51.536;3.816;2022-12-19T14:38:50;5.95;;;3.97;;
48685;SDS011;34485;51.536;3.816;2022-12-19T14:44:12;7.37;;;3.70;;
48685;SDS011;34485;51.536;3.816;2022-12-19T14:46:39;4.32;;;3.88;;
48685;SDS011;34485;51.536;3.816;2022-12-19T14:52:03;6.82;;;3.95;;
48685;SDS011;34485;51.536;3.816;2022-12-19T14:55:11;9.87;;;5.40;;
48685;SDS011;34485;51.536;3.816;2022-12-19T14:57:39;5.43;;;3.95;;
48685;SDS011;34485;51.536;3.816;2022-12-19T15:00:25;6.75;;;4.70;;
48685;SDS011;34485;51.536;3.816;2022-12-19T15:02:54;10.77;;;5.40;;
48685;SDS011;34485;51.536;3.816;2022-12-19T15:05:21;9.52;;;5.18;;
48685;SDS011;34485;51.536;3.816;2022-12-19T15:07:48;10.37;;;6.47;;
48685;SDS011;34485;51.536;3.816;2022-12-19T15:10:23;8.75;;;5.45;;
48685;SDS011;34485;51.536;3.816;2022-12-19T15:15:41;11.25;;;6.70;;
48685;SDS011;34485;51.536;3.816;2022-12-19T15:20:58;4.80;;;3.78;;
48685;SDS011;34485;51.536;3.816;2022-12-19T15:23:26;6.28;;;3.97;;
48685;SDS011;34485;51.536;3.816;2022-12-19T15:25:52;5.60;;;3.45;;
48685;SDS011;34485;51.536;3.816;2022-12-19T15:28:20;7.00;;;4.25;;
48685;SDS011;34485;51.536;3.816;2022-12-19T15:30:54;6.07;;;3.63;;
48685;SDS011;34485;51.536;3.816;2022-12-19T15:33:23;3.97;;;3.55;;
48685;SDS011;34485;51.536;3.816;2022-12-19T15:35:49;6.50;;;3.97;;
48685;SDS011;34485;51.536;3.816;2022-12-19T15:38:14;7.30;;;4.07;;
48685;SDS011;34485;51.536;3.816;2022-12-19T15:40:40;4.30;;;3.77;;
48685;SDS011;34485;51.536;3.816;2022-12-19T15:43:19;3.38;;;3.00;;
48685;SDS011;34485;51.536;3.816;2022-12-19T15:45:46;7.03;;;4.55;;
48685;SDS011;34485;51.536;3.816;2022-12-19T15:48:15;4.40;;;3.97;;
48685;SDS011;34485;51.536;3.816;2022-12-19T15:50:42;3.83;;;3.53;;
48685;SDS011;34485;51.536;3.816;2022-12-19T15:55:51;4.38;;;3.65;;
48685;SDS011;34485;51.536;3.816;2022-12-19T15:58:18;6.40;;;4.22;;
48685;SDS011;34485;51.536;3.816;2022-12-19T16:00:49;8.38;;;3.55;;
48685;SDS011;34485;51.536;3.816;2022-12-19T16:03:18;5.70;;;4.32;;
48685;SDS011;34485;51.536;3.816;2022-12-19T16:05:44;4.43;;;3.60;;
48685;SDS011;34485;51.536;3.816;2022-12-19T16:08:11;9.38;;;8.40;;
48685;SDS011;34485;51.536;3.816;2022-12-19T16:10:38;7.65;;;6.85;;
48685;SDS011;34485;51.536;3.816;2022-12-19T16:13:05;8.00;;;5.47;;
48685;SDS011;34485;51.536;3.816;2022-12-19T16:15:35;7.55;;;6.38;;
48685;SDS011;34485;51.536;3.816;2022-12-19T16:18:03;6.17;;;5.57;;
48685;SDS011;34485;51.536;3.816;2022-12-19T16:20:30;6.88;;;4.70;;
48685;SDS011;34485;51.536;3.816;2022-12-19T16:22:59;9.15;;;4.63;;
48685;SDS011;34485;51.536;3.816;2022-12-19T16:28:04;4.80;;;4.38;;
48685;SDS011;34485;51.536;3.816;2022-12-19T16:30:31;6.30;;;4.10;;
48685;SDS011;34485;51.536;3.816;2022-12-19T16:32:58;7.07;;;5.27;;
48685;SDS011;34485;51.536;3.816;2022-12-19T16:35:24;8.30;;;5.15;;
48685;SDS011;34485;51.536;3.816;2022-12-19T16:37:51;6.13;;;4.25;;
48685;SDS011;34485;51.536;3.816;2022-12-19T16:40:19;7.70;;;4.93;;
48685;SDS011;34485;51.536;3.816;2022-12-19T16:42:46;5.15;;;3.97;;
48685;SDS011;34485;51.536;3.816;2022-12-19T16:45:20;7.75;;;4.68;;
48685;SDS011;34485;51.536;3.816;2022-12-19T16:47:48;7.45;;;4.95;;
48685;SDS011;34485;51.536;3.816;2022-12-19T16:52:48;5.63;;;5.13;;
48685;SDS011;34485;51.536;3.816;2022-12-19T16:55:14;5.22;;;4.35;;
48685;SDS011;34485;51.536;3.816;2022-12-19T16:57:40;7.13;;;5.53;;
48685;SDS011;34485;51.536;3.816;2022-12-19T17:00:15;4.65;;;4.25;;
48685;SDS011;34485;51.536;3.816;2022-12-19T17:02:49;4.40;;;4.00;;
48685;SDS011;34485;51.536;3.816;2022-12-19T17:07:53;5.80;;;4.68;;